Item Display Status Serial CT Sensor

Mooring Depth: 1 m

 

Deployed Sensor

  • Serial Number: 8788
  • NDBC Property Number: 35198
  • Start Date: 9/5/2017 (07:39:28 Z)
  • End Date: Currently Active
Water Temperature [°C]     6 entries per hour
Showing data from 6/1/2018 (10:20:00 Z) to 5/31/2018 (00:00:01 Z)
Previous Next [ Day | 3-Days | 7-Days ]
First Last
Prev [ Day | 3-Days | 7-Days ] Next
First Last

Start Time:     :
End Time:     :     
Time (in GMT) :00 :50 :40 :30 :20 :10
Previous Next [ Day | 3-Days | 7-Days ]
First Last
Prev [ Day | 3-Days | 7-Days ] Next
First Last


123 => good data
MM => data is determined as missing
-- => data not received/configured
Back to Top Back to Top
6/1/2018 11:00 to 10:10 -- -- -- -- 23.732 23.732
6/1/2018 10:00 to 9:10 23.744 23.741 23.749 23.747 23.751 23.747
6/1/2018 09:00 to 8:10 23.749 23.781 23.753 23.756 23.762 23.780
6/1/2018 08:00 to 7:10 23.796 23.785 23.777 23.781 23.796 23.811
6/1/2018 07:00 to 6:10 23.780 23.780 23.806 23.786 23.785 23.796
6/1/2018 06:00 to 5:10 23.789 23.837 23.826 23.831 23.817 23.808
6/1/2018 05:00 to 4:10 23.845 23.858 23.881 23.864 23.868 23.876
6/1/2018 04:00 to 3:10 23.833 23.881 23.904 23.946 23.958 23.928
6/1/2018 03:00 to 2:10 23.908 23.964 23.949 23.907 23.914 23.946
6/1/2018 02:00 to 1:10 23.964 23.964 23.961 23.979 23.956 23.961
6/1/2018 01:00 to 0:10 24.002 24.047 24.040 24.025 24.115 24.096
6/1/2018 00:00 to 23:10 24.137 24.034 24.049 24.124 24.171 24.125
5/31/2018 23:00 to 22:10 24.064 24.140 24.213 24.106 24.040 23.985
5/31/2018 22:00 to 21:10 24.123 24.007 24.011 24.146 24.074 24.138
5/31/2018 21:00 to 20:10 23.986 24.127 24.094 24.180 24.146 24.118
5/31/2018 20:00 to 19:10 24.120 24.077 24.056 24.128 24.056 24.004
5/31/2018 19:00 to 18:10 24.021 23.983 23.904 23.922 23.881 23.894
5/31/2018 18:00 to 17:10 23.804 23.840 23.863 23.838 23.846 23.846
5/31/2018 17:00 to 16:10 23.826 23.780 23.745 23.821 23.832 23.819
5/31/2018 16:00 to 15:10 23.794 23.782 23.751 23.722 23.716 23.713
5/31/2018 15:00 to 14:10 23.680 23.675 23.658 23.636 23.612 23.614
5/31/2018 14:00 to 13:10 23.608 23.634 23.661 23.630 23.651 23.652
5/31/2018 13:00 to 12:10 23.644 23.641 23.644 23.628 23.627 23.526
5/31/2018 12:00 to 11:10 23.639 23.593 23.620 23.605 23.673 23.684
5/31/2018 11:00 to 10:10 23.665 23.670 23.694 23.692 23.733 23.729
5/31/2018 10:00 to 9:10 23.717 23.712 23.690 23.671 23.700 23.701
5/31/2018 09:00 to 8:10 23.706 23.734 23.713 23.713 23.707 23.669
5/31/2018 08:00 to 7:10 23.715 23.692 23.703 23.664 23.676 23.692
5/31/2018 07:00 to 6:10 23.687 23.716 23.696 23.703 23.729 23.742
5/31/2018 06:00 to 5:10 23.707 23.683 23.698 23.715 23.713 23.729
5/31/2018 05:00 to 4:10 23.754 23.736 23.709 23.705 23.703 23.720
5/31/2018 04:00 to 3:10 23.704 23.703 23.758 23.709 23.838 23.754
5/31/2018 03:00 to 2:10 23.882 23.864 23.824 23.809 23.855 23.826
5/31/2018 02:00 to 1:10 23.840 23.878 23.828 23.804 23.845 23.830
5/31/2018 01:00 to 0:10 23.864 23.898 23.842 23.820 23.834 23.766

 

 

 

Conductivity [S/m]     6 entries per hour
Showing data from 6/1/2018 (10:20:00 Z) to 5/31/2018 (00:00:01 Z)
Previous Next [ Day | 3-Days | 7-Days ]
First Last
Prev [ Day | 3-Days | 7-Days ] Next
First Last

Start Time:     :
End Time:     :     
Time (in GMT) :00 :50 :40 :30 :20 :10
Previous Next [ Day | 3-Days | 7-Days ]
First Last
Prev [ Day | 3-Days | 7-Days ] Next
First Last


123 => good data
MM => data is determined as missing
-- => data not received/configured
Back to Top Back to Top
6/1/2018 11:00 to 10:10 -- -- -- -- 5.18757 5.18755
6/1/2018 10:00 to 9:10 5.18884 5.18864 5.18924 5.18901 5.18944 5.18896
6/1/2018 09:00 to 8:10 5.18907 5.19277 5.18952 5.18939 5.19024 5.19203
6/1/2018 08:00 to 7:10 5.19419 5.19296 5.19213 5.19246 5.19408 5.19582
6/1/2018 07:00 to 6:10 5.19221 5.19228 5.19515 5.19290 5.19291 5.19425
6/1/2018 06:00 to 5:10 5.19341 5.19806 5.19733 5.19803 5.19641 5.19562
6/1/2018 05:00 to 4:10 5.19959 5.20102 5.20355 5.20161 5.20202 5.20315
6/1/2018 04:00 to 3:10 5.19840 5.20335 5.20591 5.21014 5.21144 5.20849
6/1/2018 03:00 to 2:10 5.20672 5.21208 5.21064 5.20643 5.20690 5.21024
6/1/2018 02:00 to 1:10 5.21191 5.21185 5.21170 5.21357 5.21116 5.21170
6/1/2018 01:00 to 0:10 5.21617 5.22099 5.22008 5.21864 5.22798 5.22584
6/1/2018 00:00 to 23:10 5.23000 5.21915 5.22116 5.22875 5.23376 5.22903
5/31/2018 23:00 to 22:10 5.22255 5.23038 5.23801 5.22746 5.21954 5.21565
5/31/2018 22:00 to 21:10 5.22886 5.21651 5.21711 5.23071 5.22459 5.23040
5/31/2018 21:00 to 20:10 5.21434 5.22931 5.22568 5.23445 5.23114 5.22731
5/31/2018 20:00 to 19:10 5.22771 5.22357 5.22098 5.22887 5.22136 5.21552
5/31/2018 19:00 to 18:10 5.21782 5.21425 5.20543 5.20757 5.20325 5.20470
5/31/2018 18:00 to 17:10 5.19519 5.19907 5.20180 5.19867 5.19986 5.19975
5/31/2018 17:00 to 16:10 5.19768 5.19257 5.18896 5.19725 5.19819 5.19711
5/31/2018 16:00 to 15:10 5.19441 5.19339 5.19029 5.18725 5.18687 5.18643
5/31/2018 15:00 to 14:10 5.18310 5.18260 5.18097 5.17835 5.17598 5.17657
5/31/2018 14:00 to 13:10 5.17596 5.17825 5.18132 5.17817 5.18022 5.18027
5/31/2018 13:00 to 12:10 5.17926 5.17922 5.17959 5.17762 5.17778 5.16508
5/31/2018 12:00 to 11:10 5.17896 5.17378 5.17684 5.17496 5.18199 5.18333
5/31/2018 11:00 to 10:10 5.18125 5.18157 5.18434 5.18367 5.18835 5.18802
5/31/2018 10:00 to 9:10 5.18676 5.18644 5.18382 5.18194 5.18488 5.18529
5/31/2018 09:00 to 8:10 5.18576 5.18884 5.18660 5.18646 5.18574 5.18179
5/31/2018 08:00 to 7:10 5.18648 5.18408 5.18512 5.18078 5.18218 5.18378
5/31/2018 07:00 to 6:10 5.18364 5.18621 5.18449 5.18473 5.18753 5.18874
5/31/2018 06:00 to 5:10 5.18518 5.18277 5.18365 5.18590 5.18518 5.18731
5/31/2018 05:00 to 4:10 5.18986 5.18805 5.18509 5.18497 5.18483 5.18639
5/31/2018 04:00 to 3:10 5.18452 5.18446 5.19050 5.18479 5.19880 5.18978
5/31/2018 03:00 to 2:10 5.20335 5.20114 5.19680 5.19513 5.20027 5.19719
5/31/2018 02:00 to 1:10 5.19874 5.20268 5.19756 5.19495 5.19909 5.19766
5/31/2018 01:00 to 0:10 5.20140 5.20470 5.19896 5.19693 5.19846 5.19117

 

 

 

Salinity [psu]     6 entries per hour
Showing data from 6/1/2018 (10:20:00 Z) to 5/31/2018 (00:00:01 Z)
Previous Next [ Day | 3-Days | 7-Days ]
First Last
Prev [ Day | 3-Days | 7-Days ] Next
First Last

Start Time:     :
End Time:     :     
Time (in GMT) :00 :50 :40 :30 :20 :10
Previous Next [ Day | 3-Days | 7-Days ]
First Last
Prev [ Day | 3-Days | 7-Days ] Next
First Last


123 => good data
MM => data is determined as missing
-- => data not received/configured
Back to Top Back to Top
6/1/2018 11:00 to 10:10 -- -- -- -- 35.09 35.09
6/1/2018 10:00 to 9:10 35.09 35.10 35.09 35.09 35.09 35.09
6/1/2018 09:00 to 8:10 35.09 35.10 35.09 35.09 35.09 35.09
6/1/2018 08:00 to 7:10 35.09 35.09 35.09 35.09 35.09 35.10
6/1/2018 07:00 to 6:10 35.09 35.09 35.09 35.09 35.09 35.09
6/1/2018 06:00 to 5:10 35.09 35.09 35.09 35.10 35.09 35.10
6/1/2018 05:00 to 4:10 35.10 35.10 35.10 35.10 35.10 35.10
6/1/2018 04:00 to 3:10 35.10 35.10 35.10 35.10 35.10 35.10
6/1/2018 03:00 to 2:10 35.10 35.10 35.10 35.10 35.10 35.10
6/1/2018 02:00 to 1:10 35.10 35.10 35.10 35.10 35.10 35.10
6/1/2018 01:00 to 0:10 35.10 35.10 35.10 35.10 35.10 35.10
6/1/2018 00:00 to 23:10 35.10 35.10 35.10 35.10 35.10 35.10
5/31/2018 23:00 to 22:10 35.10 35.10 35.10 35.10 35.09 35.11
5/31/2018 22:00 to 21:10 35.10 35.10 35.10 35.09 35.11 35.10
5/31/2018 21:00 to 20:10 35.10 35.10 35.10 35.10 35.10 35.09
5/31/2018 20:00 to 19:10 35.09 35.10 35.09 35.10 35.09 35.09
5/31/2018 19:00 to 18:10 35.10 35.10 35.09 35.10 35.10 35.10
5/31/2018 18:00 to 17:10 35.10 35.10 35.10 35.10 35.10 35.10
5/31/2018 17:00 to 16:10 35.10 35.09 35.09 35.10 35.10 35.10
5/31/2018 16:00 to 15:10 35.10 35.10 35.10 35.10 35.10 35.10
5/31/2018 15:00 to 14:10 35.10 35.10 35.10 35.10 35.10 35.10
5/31/2018 14:00 to 13:10 35.10 35.10 35.10 35.10 35.10 35.10
5/31/2018 13:00 to 12:10 35.10 35.10 35.10 35.10 35.10 35.09
5/31/2018 12:00 to 11:10 35.10 35.10 35.10 35.10 35.10 35.10
5/31/2018 11:00 to 10:10 35.10 35.10 35.10 35.10 35.10 35.10
5/31/2018 10:00 to 9:10 35.10 35.10 35.10 35.10 35.10 35.10
5/31/2018 09:00 to 8:10 35.10 35.10 35.10 35.10 35.10 35.10
5/31/2018 08:00 to 7:10 35.10 35.10 35.10 35.10 35.10 35.10
5/31/2018 07:00 to 6:10 35.10 35.10 35.10 35.10 35.10 35.10
5/31/2018 06:00 to 5:10 35.10 35.10 35.09 35.10 35.09 35.09
5/31/2018 05:00 to 4:10 35.09 35.10 35.09 35.10 35.10 35.09
5/31/2018 04:00 to 3:10 35.09 35.09 35.10 35.09 35.10 35.09
5/31/2018 03:00 to 2:10 35.10 35.09 35.09 35.09 35.09 35.09
5/31/2018 02:00 to 1:10 35.09 35.09 35.09 35.09 35.09 35.09
5/31/2018 01:00 to 0:10 35.10 35.09 35.09 35.10 35.10 35.09